sensor_id;sensor_type;location;lat;lon;timestamp;P1;durP1;ratioP1;P2;durP2;ratioP2
19889;SDS011;10107;51.198;6.824;2024-01-15T00:02:20;35.08;;;16.48;;
19889;SDS011;10107;51.198;6.824;2024-01-15T00:10:23;43.10;;;18.98;;
19889;SDS011;10107;51.198;6.824;2024-01-15T00:14:25;48.25;;;20.00;;
19889;SDS011;10107;51.198;6.824;2024-01-15T00:18:28;41.83;;;18.88;;
19889;SDS011;10107;51.198;6.824;2024-01-15T00:22:30;39.22;;;18.17;;
19889;SDS011;10107;51.198;6.824;2024-01-15T00:26:32;41.80;;;20.15;;
19889;SDS011;10107;51.198;6.824;2024-01-15T00:30:34;45.65;;;20.08;;
19889;SDS011;10107;51.198;6.824;2024-01-15T00:34:37;36.17;;;17.27;;
19889;SDS011;10107;51.198;6.824;2024-01-15T00:38:38;45.03;;;19.67;;
19889;SDS011;10107;51.198;6.824;2024-01-15T00:42:40;45.10;;;19.65;;
19889;SDS011;10107;51.198;6.824;2024-01-15T00:46:42;37.72;;;18.65;;
19889;SDS011;10107;51.198;6.824;2024-01-15T00:54:48;41.70;;;18.73;;
19889;SDS011;10107;51.198;6.824;2024-01-15T00:58:50;38.58;;;17.10;;
19889;SDS011;10107;51.198;6.824;2024-01-15T01:02:51;44.05;;;20.33;;
19889;SDS011;10107;51.198;6.824;2024-01-15T01:06:54;44.67;;;19.55;;
19889;SDS011;10107;51.198;6.824;2024-01-15T01:10:56;43.75;;;19.17;;
19889;SDS011;10107;51.198;6.824;2024-01-15T01:14:58;44.63;;;20.65;;
19889;SDS011;10107;51.198;6.824;2024-01-15T01:19:00;41.85;;;19.02;;
19889;SDS011;10107;51.198;6.824;2024-01-15T01:23:03;43.33;;;19.73;;
19889;SDS011;10107;51.198;6.824;2024-01-15T01:27:05;44.40;;;21.15;;
19889;SDS011;10107;51.198;6.824;2024-01-15T01:31:07;42.00;;;18.73;;
19889;SDS011;10107;51.198;6.824;2024-01-15T01:35:09;40.90;;;20.33;;
19889;SDS011;10107;51.198;6.824;2024-01-15T01:39:12;41.55;;;18.65;;
19889;SDS011;10107;51.198;6.824;2024-01-15T01:43:14;40.63;;;19.50;;
19889;SDS011;10107;51.198;6.824;2024-01-15T01:47:16;41.90;;;18.88;;
19889;SDS011;10107;51.198;6.824;2024-01-15T01:51:18;39.17;;;18.00;;
19889;SDS011;10107;51.198;6.824;2024-01-15T01:55:23;36.20;;;17.73;;
19889;SDS011;10107;51.198;6.824;2024-01-15T01:59:27;37.55;;;18.65;;
19889;SDS011;10107;51.198;6.824;2024-01-15T02:03:29;38.10;;;17.90;;
19889;SDS011;10107;51.198;6.824;2024-01-15T02:07:32;37.67;;;17.92;;
19889;SDS011;10107;51.198;6.824;2024-01-15T02:11:37;48.15;;;21.83;;
19889;SDS011;10107;51.198;6.824;2024-01-15T02:19:41;30.27;;;15.10;;
19889;SDS011;10107;51.198;6.824;2024-01-15T02:23:44;33.78;;;16.15;;
19889;SDS011;10107;51.198;6.824;2024-01-15T02:27:46;36.85;;;17.27;;
19889;SDS011;10107;51.198;6.824;2024-01-15T02:31:48;35.20;;;17.40;;
19889;SDS011;10107;51.198;6.824;2024-01-15T02:35:50;39.33;;;17.58;;
19889;SDS011;10107;51.198;6.824;2024-01-15T02:39:53;42.53;;;18.52;;
19889;SDS011;10107;51.198;6.824;2024-01-15T02:43:55;33.15;;;15.73;;
19889;SDS011;10107;51.198;6.824;2024-01-15T02:47:56;30.92;;;15.95;;
19889;SDS011;10107;51.198;6.824;2024-01-15T02:51:58;30.45;;;15.95;;
19889;SDS011;10107;51.198;6.824;2024-01-15T02:56:01;33.25;;;15.13;;
19889;SDS011;10107;51.198;6.824;2024-01-15T03:00:03;30.20;;;15.13;;
19889;SDS011;10107;51.198;6.824;2024-01-15T03:04:07;34.88;;;16.35;;
19889;SDS011;10107;51.198;6.824;2024-01-15T03:08:09;37.53;;;17.55;;
19889;SDS011;10107;51.198;6.824;2024-01-15T03:12:12;31.08;;;15.85;;
19889;SDS011;10107;51.198;6.824;2024-01-15T03:16:14;33.28;;;16.73;;
19889;SDS011;10107;51.198;6.824;2024-01-15T03:20:16;32.53;;;16.05;;
19889;SDS011;10107;51.198;6.824;2024-01-15T03:24:17;28.20;;;14.68;;
19889;SDS011;10107;51.198;6.824;2024-01-15T03:28:20;29.38;;;14.70;;
19889;SDS011;10107;51.198;6.824;2024-01-15T03:32:22;29.02;;;14.00;;
19889;SDS011;10107;51.198;6.824;2024-01-15T03:36:24;28.92;;;13.75;;
19889;SDS011;10107;51.198;6.824;2024-01-15T03:40:25;25.45;;;13.68;;
19889;SDS011;10107;51.198;6.824;2024-01-15T03:44:29;26.67;;;13.68;;
19889;SDS011;10107;51.198;6.824;2024-01-15T03:48:30;25.08;;;13.10;;
19889;SDS011;10107;51.198;6.824;2024-01-15T03:52:33;23.98;;;12.90;;
19889;SDS011;10107;51.198;6.824;2024-01-15T03:56:35;23.35;;;12.23;;
19889;SDS011;10107;51.198;6.824;2024-01-15T04:00:38;24.27;;;13.95;;
19889;SDS011;10107;51.198;6.824;2024-01-15T04:04:40;25.83;;;13.15;;
19889;SDS011;10107;51.198;6.824;2024-01-15T04:08:42;30.55;;;16.25;;
19889;SDS011;10107;51.198;6.824;2024-01-15T04:12:44;29.95;;;14.40;;
19889;SDS011;10107;51.198;6.824;2024-01-15T04:16:47;29.40;;;15.45;;
19889;SDS011;10107;51.198;6.824;2024-01-15T04:20:49;33.65;;;16.08;;
19889;SDS011;10107;51.198;6.824;2024-01-15T04:24:51;25.35;;;14.23;;
19889;SDS011;10107;51.198;6.824;2024-01-15T04:28:52;41.33;;;18.67;;
19889;SDS011;10107;51.198;6.824;2024-01-15T04:32:56;27.02;;;15.00;;
19889;SDS011;10107;51.198;6.824;2024-01-15T04:36:58;30.05;;;16.52;;
19889;SDS011;10107;51.198;6.824;2024-01-15T04:40:59;32.10;;;16.27;;
19889;SDS011;10107;51.198;6.824;2024-01-15T04:45:01;31.58;;;15.00;;
19889;SDS011;10107;51.198;6.824;2024-01-15T04:49:05;29.07;;;16.37;;
19889;SDS011;10107;51.198;6.824;2024-01-15T04:53:07;30.00;;;15.32;;
19889;SDS011;10107;51.198;6.824;2024-01-15T04:57:08;29.73;;;14.88;;
19889;SDS011;10107;51.198;6.824;2024-01-15T05:01:10;30.83;;;15.70;;
19889;SDS011;10107;51.198;6.824;2024-01-15T05:05:13;39.08;;;18.88;;
19889;SDS011;10107;51.198;6.824;2024-01-15T05:09:16;30.65;;;15.88;;
19889;SDS011;10107;51.198;6.824;2024-01-15T05:13:18;22.48;;;11.73;;
19889;SDS011;10107;51.198;6.824;2024-01-15T05:17:20;21.40;;;11.05;;
19889;SDS011;10107;51.198;6.824;2024-01-15T05:21:23;21.05;;;10.90;;
19889;SDS011;10107;51.198;6.824;2024-01-15T05:25:24;21.80;;;10.25;;
19889;SDS011;10107;51.198;6.824;2024-01-15T05:29:26;17.95;;;10.23;;
19889;SDS011;10107;51.198;6.824;2024-01-15T05:33:28;18.13;;;9.98;;
19889;SDS011;10107;51.198;6.824;2024-01-15T05:37:31;20.50;;;9.60;;
19889;SDS011;10107;51.198;6.824;2024-01-15T05:41:32;17.52;;;9.70;;
19889;SDS011;10107;51.198;6.824;2024-01-15T05:45:34;16.17;;;9.40;;
19889;SDS011;10107;51.198;6.824;2024-01-15T05:49:36;12.93;;;7.88;;
19889;SDS011;10107;51.198;6.824;2024-01-15T05:53:40;20.77;;;9.95;;
19889;SDS011;10107;51.198;6.824;2024-01-15T05:57:43;17.20;;;8.75;;
19889;SDS011;10107;51.198;6.824;2024-01-15T06:01:44;16.75;;;9.40;;
19889;SDS011;10107;51.198;6.824;2024-01-15T06:05:46;16.25;;;9.02;;
19889;SDS011;10107;51.198;6.824;2024-01-15T06:09:49;14.82;;;8.80;;
19889;SDS011;10107;51.198;6.824;2024-01-15T06:13:50;14.30;;;8.50;;
19889;SDS011;10107;51.198;6.824;2024-01-15T06:17:52;14.93;;;8.00;;
19889;SDS011;10107;51.198;6.824;2024-01-15T06:21:54;17.95;;;8.57;;
19889;SDS011;10107;51.198;6.824;2024-01-15T06:25:57;17.08;;;8.98;;
19889;SDS011;10107;51.198;6.824;2024-01-15T06:29:58;14.73;;;8.45;;
19889;SDS011;10107;51.198;6.824;2024-01-15T06:34:00;15.32;;;9.05;;
19889;SDS011;10107;51.198;6.824;2024-01-15T06:38:02;16.80;;;8.60;;
19889;SDS011;10107;51.198;6.824;2024-01-15T06:42:06;13.60;;;7.80;;
19889;SDS011;10107;51.198;6.824;2024-01-15T06:46:08;11.07;;;6.55;;
19889;SDS011;10107;51.198;6.824;2024-01-15T06:50:10;10.88;;;6.93;;
19889;SDS011;10107;51.198;6.824;2024-01-15T06:54:11;13.82;;;7.70;;
19889;SDS011;10107;51.198;6.824;2024-01-15T06:58:15;12.38;;;7.18;;
19889;SDS011;10107;51.198;6.824;2024-01-15T07:02:17;15.07;;;8.30;;
19889;SDS011;10107;51.198;6.824;2024-01-15T07:06:18;14.52;;;8.13;;
19889;SDS011;10107;51.198;6.824;2024-01-15T07:10:20;17.25;;;9.13;;
19889;SDS011;10107;51.198;6.824;2024-01-15T07:14:23;18.58;;;9.73;;
19889;SDS011;10107;51.198;6.824;2024-01-15T07:18:24;23.35;;;11.77;;
19889;SDS011;10107;51.198;6.824;2024-01-15T07:22:26;18.67;;;11.13;;
19889;SDS011;10107;51.198;6.824;2024-01-15T07:26:29;18.70;;;9.77;;
19889;SDS011;10107;51.198;6.824;2024-01-15T07:30:33;19.48;;;11.60;;
19889;SDS011;10107;51.198;6.824;2024-01-15T07:34:34;22.70;;;13.13;;
19889;SDS011;10107;51.198;6.824;2024-01-15T07:38:36;23.65;;;12.20;;
19889;SDS011;10107;51.198;6.824;2024-01-15T07:42:38;21.75;;;11.73;;
19889;SDS011;10107;51.198;6.824;2024-01-15T07:46:41;19.17;;;10.95;;
19889;SDS011;10107;51.198;6.824;2024-01-15T07:50:45;20.10;;;11.02;;
19889;SDS011;10107;51.198;6.824;2024-01-15T07:54:47;24.02;;;12.82;;
19889;SDS011;10107;51.198;6.824;2024-01-15T07:58:48;24.98;;;14.10;;
19889;SDS011;10107;51.198;6.824;2024-01-15T08:02:51;22.85;;;12.88;;
19889;SDS011;10107;51.198;6.824;2024-01-15T08:06:53;26.13;;;14.27;;
19889;SDS011;10107;51.198;6.824;2024-01-15T08:10:57;28.95;;;15.15;;
19889;SDS011;10107;51.198;6.824;2024-01-15T08:14:58;28.20;;;15.38;;
19889;SDS011;10107;51.198;6.824;2024-01-15T08:19:01;30.05;;;15.48;;
19889;SDS011;10107;51.198;6.824;2024-01-15T08:23:03;30.98;;;16.27;;
19889;SDS011;10107;51.198;6.824;2024-01-15T08:27:05;27.77;;;15.90;;
19889;SDS011;10107;51.198;6.824;2024-01-15T08:31:07;29.92;;;15.05;;
19889;SDS011;10107;51.198;6.824;2024-01-15T08:35:11;25.90;;;14.90;;
19889;SDS011;10107;51.198;6.824;2024-01-15T08:39:12;25.73;;;14.13;;
19889;SDS011;10107;51.198;6.824;2024-01-15T08:43:14;24.67;;;13.90;;
19889;SDS011;10107;51.198;6.824;2024-01-15T08:47:16;24.48;;;13.93;;
19889;SDS011;10107;51.198;6.824;2024-01-15T08:51:19;20.77;;;12.07;;
19889;SDS011;10107;51.198;6.824;2024-01-15T08:55:21;26.17;;;13.68;;
19889;SDS011;10107;51.198;6.824;2024-01-15T08:59:23;23.85;;;13.00;;
19889;SDS011;10107;51.198;6.824;2024-01-15T09:03:26;25.93;;;14.17;;
19889;SDS011;10107;51.198;6.824;2024-01-15T09:07:29;23.60;;;13.23;;
19889;SDS011;10107;51.198;6.824;2024-01-15T09:11:31;24.95;;;14.15;;
19889;SDS011;10107;51.198;6.824;2024-01-15T09:15:32;23.55;;;13.85;;
19889;SDS011;10107;51.198;6.824;2024-01-15T09:19:34;29.85;;;15.73;;
19889;SDS011;10107;51.198;6.824;2024-01-15T09:23:37;25.80;;;14.65;;
19889;SDS011;10107;51.198;6.824;2024-01-15T09:27:39;26.75;;;14.40;;
19889;SDS011;10107;51.198;6.824;2024-01-15T09:31:41;26.60;;;14.70;;
19889;SDS011;10107;51.198;6.824;2024-01-15T09:35:42;24.75;;;13.98;;
19889;SDS011;10107;51.198;6.824;2024-01-15T09:39:45;23.98;;;13.27;;
19889;SDS011;10107;51.198;6.824;2024-01-15T09:43:48;23.05;;;12.75;;
19889;SDS011;10107;51.198;6.824;2024-01-15T09:47:51;21.52;;;13.45;;
19889;SDS011;10107;51.198;6.824;2024-01-15T09:51:53;20.45;;;12.85;;
19889;SDS011;10107;51.198;6.824;2024-01-15T09:55:57;18.37;;;11.67;;
19889;SDS011;10107;51.198;6.824;2024-01-15T09:59:59;17.88;;;10.73;;
19889;SDS011;10107;51.198;6.824;2024-01-15T10:04:05;19.02;;;11.52;;
19889;SDS011;10107;51.198;6.824;2024-01-15T10:08:07;19.60;;;11.13;;
19889;SDS011;10107;51.198;6.824;2024-01-15T10:12:11;16.27;;;10.20;;
19889;SDS011;10107;51.198;6.824;2024-01-15T10:16:13;15.68;;;10.10;;
19889;SDS011;10107;51.198;6.824;2024-01-15T10:20:15;13.82;;;9.20;;
19889;SDS011;10107;51.198;6.824;2024-01-15T10:24:16;15.68;;;9.05;;
19889;SDS011;10107;51.198;6.824;2024-01-15T10:28:20;12.65;;;8.20;;
19889;SDS011;10107;51.198;6.824;2024-01-15T10:32:21;12.52;;;7.30;;
19889;SDS011;10107;51.198;6.824;2024-01-15T10:36:25;11.93;;;7.70;;
19889;SDS011;10107;51.198;6.824;2024-01-15T10:40:27;9.43;;;6.43;;
19889;SDS011;10107;51.198;6.824;2024-01-15T10:44:30;9.48;;;6.30;;
19889;SDS011;10107;51.198;6.824;2024-01-15T10:48:32;8.23;;;5.75;;
19889;SDS011;10107;51.198;6.824;2024-01-15T10:56:37;8.48;;;4.72;;
19889;SDS011;10107;51.198;6.824;2024-01-15T11:00:42;4.40;;;2.95;;
19889;SDS011;10107;51.198;6.824;2024-01-15T11:04:44;8.23;;;4.47;;
19889;SDS011;10107;51.198;6.824;2024-01-15T11:08:47;7.45;;;4.05;;
19889;SDS011;10107;51.198;6.824;2024-01-15T11:12:50;5.68;;;3.30;;
19889;SDS011;10107;51.198;6.824;2024-01-15T11:16:57;3.80;;;2.65;;
19889;SDS011;10107;51.198;6.824;2024-01-15T11:25:34;9.00;;;2.40;;
19889;SDS011;10107;51.198;6.824;2024-01-15T11:29:38;3.72;;;2.13;;
19889;SDS011;10107;51.198;6.824;2024-01-15T11:33:45;3.80;;;2.17;;
19889;SDS011;10107;51.198;6.824;2024-01-15T11:37:56;3.42;;;1.90;;
19889;SDS011;10107;51.198;6.824;2024-01-15T11:41:59;4.18;;;1.98;;
19889;SDS011;10107;51.198;6.824;2024-01-15T11:46:03;4.50;;;2.30;;
19889;SDS011;10107;51.198;6.824;2024-01-15T11:50:07;4.05;;;2.50;;
19889;SDS011;10107;51.198;6.824;2024-01-15T11:54:10;6.00;;;2.88;;
19889;SDS011;10107;51.198;6.824;2024-01-15T11:58:15;5.93;;;3.03;;
19889;SDS011;10107;51.198;6.824;2024-01-15T12:02:17;5.43;;;3.05;;
19889;SDS011;10107;51.198;6.824;2024-01-15T12:06:20;5.57;;;3.65;;
19889;SDS011;10107;51.198;6.824;2024-01-15T12:10:23;6.93;;;3.63;;
19889;SDS011;10107;51.198;6.824;2024-01-15T12:14:26;4.73;;;3.07;;
19889;SDS011;10107;51.198;6.824;2024-01-15T12:18:29;5.72;;;3.65;;
19889;SDS011;10107;51.198;6.824;2024-01-15T12:22:32;7.65;;;3.90;;
19889;SDS011;10107;51.198;6.824;2024-01-15T12:26:34;6.80;;;4.40;;
19889;SDS011;10107;51.198;6.824;2024-01-15T12:30:36;7.25;;;4.30;;
19889;SDS011;10107;51.198;6.824;2024-01-15T12:34:38;9.18;;;4.68;;
19889;SDS011;10107;51.198;6.824;2024-01-15T12:38:41;8.75;;;5.07;;
19889;SDS011;10107;51.198;6.824;2024-01-15T12:42:42;9.18;;;4.47;;
19889;SDS011;10107;51.198;6.824;2024-01-15T12:46:44;10.82;;;6.13;;
19889;SDS011;10107;51.198;6.824;2024-01-15T12:50:46;11.63;;;6.70;;
19889;SDS011;10107;51.198;6.824;2024-01-15T12:54:49;10.27;;;6.72;;
19889;SDS011;10107;51.198;6.824;2024-01-15T12:58:52;12.88;;;7.35;;
19889;SDS011;10107;51.198;6.824;2024-01-15T13:02:54;9.32;;;6.50;;
19889;SDS011;10107;51.198;6.824;2024-01-15T13:06:57;9.15;;;6.88;;
19889;SDS011;10107;51.198;6.824;2024-01-15T13:11:00;9.63;;;5.93;;
19889;SDS011;10107;51.198;6.824;2024-01-15T13:15:02;6.75;;;5.18;;
19889;SDS011;10107;51.198;6.824;2024-01-15T13:19:04;7.32;;;4.20;;
19889;SDS011;10107;51.198;6.824;2024-01-15T13:23:06;8.88;;;5.00;;
19889;SDS011;10107;51.198;6.824;2024-01-15T13:27:11;9.35;;;6.43;;
19889;SDS011;10107;51.198;6.824;2024-01-15T13:31:13;10.30;;;6.65;;
19889;SDS011;10107;51.198;6.824;2024-01-15T13:35:15;6.28;;;4.30;;
19889;SDS011;10107;51.198;6.824;2024-01-15T13:39:17;5.53;;;3.63;;
19889;SDS011;10107;51.198;6.824;2024-01-15T13:43:21;4.95;;;3.45;;
19889;SDS011;10107;51.198;6.824;2024-01-15T13:47:23;6.03;;;3.33;;
19889;SDS011;10107;51.198;6.824;2024-01-15T13:51:25;3.65;;;2.70;;
19889;SDS011;10107;51.198;6.824;2024-01-15T13:55:26;3.67;;;2.30;;
19889;SDS011;10107;51.198;6.824;2024-01-15T13:59:31;4.10;;;2.50;;
19889;SDS011;10107;51.198;6.824;2024-01-15T14:03:32;2.45;;;1.90;;
19889;SDS011;10107;51.198;6.824;2024-01-15T14:07:35;2.60;;;2.08;;
19889;SDS011;10107;51.198;6.824;2024-01-15T14:11:36;3.25;;;2.22;;
19889;SDS011;10107;51.198;6.824;2024-01-15T14:15:40;2.90;;;2.30;;
19889;SDS011;10107;51.198;6.824;2024-01-15T14:19:41;3.50;;;2.05;;
19889;SDS011;10107;51.198;6.824;2024-01-15T14:23:43;3.05;;;2.40;;
19889;SDS011;10107;51.198;6.824;2024-01-15T14:27:45;2.80;;;1.88;;
19889;SDS011;10107;51.198;6.824;2024-01-15T14:31:48;3.00;;;2.03;;
19889;SDS011;10107;51.198;6.824;2024-01-15T14:35:50;4.13;;;2.25;;
19889;SDS011;10107;51.198;6.824;2024-01-15T14:39:51;2.80;;;2.17;;
19889;SDS011;10107;51.198;6.824;2024-01-15T14:43:53;2.47;;;1.90;;
19889;SDS011;10107;51.198;6.824;2024-01-15T14:47:58;3.60;;;2.10;;
19889;SDS011;10107;51.198;6.824;2024-01-15T14:52:00;2.20;;;1.98;;
19889;SDS011;10107;51.198;6.824;2024-01-15T14:56:03;2.72;;;2.10;;
19889;SDS011;10107;51.198;6.824;2024-01-15T15:00:06;2.05;;;1.75;;
19889;SDS011;10107;51.198;6.824;2024-01-15T15:04:10;5.13;;;2.30;;
19889;SDS011;10107;51.198;6.824;2024-01-15T15:08:12;5.55;;;4.10;;
19889;SDS011;10107;51.198;6.824;2024-01-15T15:12:14;2.65;;;2.15;;
19889;SDS011;10107;51.198;6.824;2024-01-15T15:16:16;4.13;;;2.40;;
19889;SDS011;10107;51.198;6.824;2024-01-15T15:20:19;3.30;;;2.22;;
19889;SDS011;10107;51.198;6.824;2024-01-15T15:28:22;2.70;;;2.20;;
19889;SDS011;10107;51.198;6.824;2024-01-15T15:32:24;3.25;;;2.25;;
19889;SDS011;10107;51.198;6.824;2024-01-15T15:36:27;2.67;;;2.30;;
19889;SDS011;10107;51.198;6.824;2024-01-15T15:40:29;3.13;;;2.20;;
19889;SDS011;10107;51.198;6.824;2024-01-15T15:44:30;2.75;;;1.80;;
19889;SDS011;10107;51.198;6.824;2024-01-15T15:48:32;3.22;;;2.35;;
19889;SDS011;10107;51.198;6.824;2024-01-15T15:52:36;3.30;;;2.40;;
19889;SDS011;10107;51.198;6.824;2024-01-15T15:56:37;4.68;;;3.10;;
19889;SDS011;10107;51.198;6.824;2024-01-15T16:00:39;4.70;;;2.83;;
19889;SDS011;10107;51.198;6.824;2024-01-15T16:04:41;3.80;;;2.83;;
19889;SDS011;10107;51.198;6.824;2024-01-15T16:08:44;3.53;;;2.78;;
19889;SDS011;10107;51.198;6.824;2024-01-15T16:12:46;4.20;;;2.75;;
19889;SDS011;10107;51.198;6.824;2024-01-15T16:16:48;5.40;;;3.05;;
19889;SDS011;10107;51.198;6.824;2024-01-15T16:20:50;3.60;;;2.07;;
19889;SDS011;10107;51.198;6.824;2024-01-15T16:24:54;6.70;;;3.58;;
19889;SDS011;10107;51.198;6.824;2024-01-15T16:28:55;5.05;;;3.05;;
19889;SDS011;10107;51.198;6.824;2024-01-15T16:32:57;3.75;;;3.22;;
19889;SDS011;10107;51.198;6.824;2024-01-15T16:36:59;4.85;;;3.72;;
19889;SDS011;10107;51.198;6.824;2024-01-15T16:41:01;5.65;;;3.53;;
19889;SDS011;10107;51.198;6.824;2024-01-15T16:45:03;6.05;;;4.35;;
19889;SDS011;10107;51.198;6.824;2024-01-15T16:49:06;7.70;;;5.25;;
19889;SDS011;10107;51.198;6.824;2024-01-15T16:53:10;13.88;;;7.90;;
19889;SDS011;10107;51.198;6.824;2024-01-15T16:57:13;24.05;;;12.45;;
19889;SDS011;10107;51.198;6.824;2024-01-15T17:01:15;21.98;;;11.30;;
19889;SDS011;10107;51.198;6.824;2024-01-15T17:05:17;24.27;;;11.75;;
19889;SDS011;10107;51.198;6.824;2024-01-15T17:09:19;16.15;;;9.25;;
19889;SDS011;10107;51.198;6.824;2024-01-15T17:13:22;26.48;;;11.73;;
19889;SDS011;10107;51.198;6.824;2024-01-15T17:17:24;16.92;;;10.43;;
19889;SDS011;10107;51.198;6.824;2024-01-15T17:21:26;13.68;;;8.20;;
19889;SDS011;10107;51.198;6.824;2024-01-15T17:25:27;10.88;;;7.10;;
19889;SDS011;10107;51.198;6.824;2024-01-15T17:29:30;10.00;;;6.63;;
19889;SDS011;10107;51.198;6.824;2024-01-15T17:33:32;10.95;;;6.03;;
19889;SDS011;10107;51.198;6.824;2024-01-15T17:37:34;11.55;;;6.30;;
19889;SDS011;10107;51.198;6.824;2024-01-15T17:41:35;9.60;;;6.47;;
19889;SDS011;10107;51.198;6.824;2024-01-15T17:45:39;9.35;;;5.28;;
19889;SDS011;10107;51.198;6.824;2024-01-15T17:49:41;11.60;;;5.72;;
19889;SDS011;10107;51.198;6.824;2024-01-15T17:53:44;8.52;;;5.53;;
19889;SDS011;10107;51.198;6.824;2024-01-15T17:57:46;13.40;;;6.50;;
19889;SDS011;10107;51.198;6.824;2024-01-15T18:01:49;10.25;;;5.13;;
19889;SDS011;10107;51.198;6.824;2024-01-15T18:05:52;10.45;;;5.38;;
19889;SDS011;10107;51.198;6.824;2024-01-15T18:09:54;11.85;;;6.13;;
19889;SDS011;10107;51.198;6.824;2024-01-15T18:13:55;14.80;;;7.90;;
19889;SDS011;10107;51.198;6.824;2024-01-15T18:17:59;11.57;;;5.82;;
19889;SDS011;10107;51.198;6.824;2024-01-15T18:22:01;9.45;;;5.20;;
19889;SDS011;10107;51.198;6.824;2024-01-15T18:26:03;8.85;;;5.35;;
19889;SDS011;10107;51.198;6.824;2024-01-15T18:30:06;15.95;;;7.53;;
19889;SDS011;10107;51.198;6.824;2024-01-15T18:34:11;10.45;;;6.45;;
19889;SDS011;10107;51.198;6.824;2024-01-15T18:38:13;11.75;;;8.05;;
19889;SDS011;10107;51.198;6.824;2024-01-15T18:42:15;14.13;;;8.02;;
19889;SDS011;10107;51.198;6.824;2024-01-15T18:46:17;13.48;;;7.28;;
19889;SDS011;10107;51.198;6.824;2024-01-15T18:50:22;16.08;;;8.80;;
19889;SDS011;10107;51.198;6.824;2024-01-15T18:54:24;11.63;;;7.68;;
19889;SDS011;10107;51.198;6.824;2024-01-15T18:58:27;14.00;;;7.55;;
19889;SDS011;10107;51.198;6.824;2024-01-15T19:02:31;10.65;;;6.50;;
19889;SDS011;10107;51.198;6.824;2024-01-15T19:06:34;7.35;;;4.65;;
19889;SDS011;10107;51.198;6.824;2024-01-15T19:10:35;11.90;;;5.70;;
19889;SDS011;10107;51.198;6.824;2024-01-15T19:14:38;8.10;;;4.82;;
19889;SDS011;10107;51.198;6.824;2024-01-15T19:18:39;10.48;;;5.43;;
19889;SDS011;10107;51.198;6.824;2024-01-15T19:22:42;9.40;;;4.63;;
19889;SDS011;10107;51.198;6.824;2024-01-15T19:26:44;7.97;;;4.78;;
19889;SDS011;10107;51.198;6.824;2024-01-15T19:30:46;8.18;;;4.38;;
19889;SDS011;10107;51.198;6.824;2024-01-15T19:34:50;7.97;;;4.40;;
19889;SDS011;10107;51.198;6.824;2024-01-15T19:38:53;11.73;;;5.20;;
19889;SDS011;10107;51.198;6.824;2024-01-15T19:42:55;12.98;;;5.47;;
19889;SDS011;10107;51.198;6.824;2024-01-15T19:46:57;9.32;;;5.68;;
19889;SDS011;10107;51.198;6.824;2024-01-15T19:50:59;9.82;;;5.50;;
19889;SDS011;10107;51.198;6.824;2024-01-15T19:55:02;9.13;;;6.00;;
19889;SDS011;10107;51.198;6.824;2024-01-15T20:03:06;10.02;;;5.97;;
19889;SDS011;10107;51.198;6.824;2024-01-15T20:07:08;16.10;;;7.38;;
19889;SDS011;10107;51.198;6.824;2024-01-15T20:11:11;13.05;;;7.82;;
19889;SDS011;10107;51.198;6.824;2024-01-15T20:15:13;18.60;;;8.30;;
19889;SDS011;10107;51.198;6.824;2024-01-15T20:19:15;15.77;;;7.82;;
19889;SDS011;10107;51.198;6.824;2024-01-15T20:23:17;13.38;;;7.63;;
19889;SDS011;10107;51.198;6.824;2024-01-15T20:27:21;14.63;;;8.02;;
19889;SDS011;10107;51.198;6.824;2024-01-15T20:31:22;13.75;;;8.38;;
19889;SDS011;10107;51.198;6.824;2024-01-15T20:35:24;17.23;;;8.80;;
19889;SDS011;10107;51.198;6.824;2024-01-15T20:39:26;15.57;;;8.85;;
19889;SDS011;10107;51.198;6.824;2024-01-15T20:43:29;16.15;;;9.73;;
19889;SDS011;10107;51.198;6.824;2024-01-15T20:47:31;15.63;;;9.43;;
19889;SDS011;10107;51.198;6.824;2024-01-15T20:51:33;18.35;;;10.82;;
19889;SDS011;10107;51.198;6.824;2024-01-15T20:55:35;22.40;;;12.20;;
19889;SDS011;10107;51.198;6.824;2024-01-15T20:59:38;22.40;;;12.15;;
19889;SDS011;10107;51.198;6.824;2024-01-15T21:07:41;14.45;;;8.45;;
19889;SDS011;10107;51.198;6.824;2024-01-15T21:11:43;15.77;;;8.88;;
19889;SDS011;10107;51.198;6.824;2024-01-15T21:15:46;13.18;;;6.97;;
19889;SDS011;10107;51.198;6.824;2024-01-15T21:19:48;13.05;;;7.30;;
19889;SDS011;10107;51.198;6.824;2024-01-15T21:23:55;13.23;;;6.57;;
19889;SDS011;10107;51.198;6.824;2024-01-15T21:27:57;14.55;;;6.65;;
19889;SDS011;10107;51.198;6.824;2024-01-15T21:32:00;12.10;;;7.10;;
19889;SDS011;10107;51.198;6.824;2024-01-15T21:36:02;16.00;;;7.65;;
19889;SDS011;10107;51.198;6.824;2024-01-15T21:40:05;13.33;;;7.10;;
19889;SDS011;10107;51.198;6.824;2024-01-15T21:44:10;11.45;;;6.80;;
19889;SDS011;10107;51.198;6.824;2024-01-15T21:48:13;10.25;;;5.97;;
19889;SDS011;10107;51.198;6.824;2024-01-15T21:52:15;10.38;;;6.85;;
19889;SDS011;10107;51.198;6.824;2024-01-15T21:56:17;11.63;;;6.88;;
19889;SDS011;10107;51.198;6.824;2024-01-15T22:00:18;15.20;;;8.60;;
19889;SDS011;10107;51.198;6.824;2024-01-15T22:04:21;13.02;;;8.70;;
19889;SDS011;10107;51.198;6.824;2024-01-15T22:08:23;15.77;;;9.88;;
19889;SDS011;10107;51.198;6.824;2024-01-15T22:12:25;16.35;;;10.23;;
19889;SDS011;10107;51.198;6.824;2024-01-15T22:16:26;18.17;;;10.05;;
19889;SDS011;10107;51.198;6.824;2024-01-15T22:20:29;15.27;;;9.40;;
19889;SDS011;10107;51.198;6.824;2024-01-15T22:24:31;17.25;;;9.57;;
19889;SDS011;10107;51.198;6.824;2024-01-15T22:28:33;13.35;;;8.80;;
19889;SDS011;10107;51.198;6.824;2024-01-15T22:32:35;14.38;;;9.18;;
19889;SDS011;10107;51.198;6.824;2024-01-15T22:36:38;14.60;;;8.95;;
19889;SDS011;10107;51.198;6.824;2024-01-15T22:40:39;14.18;;;8.98;;
19889;SDS011;10107;51.198;6.824;2024-01-15T22:44:41;15.13;;;10.13;;
19889;SDS011;10107;51.198;6.824;2024-01-15T22:48:43;17.33;;;9.95;;
19889;SDS011;10107;51.198;6.824;2024-01-15T22:52:46;13.25;;;8.82;;
19889;SDS011;10107;51.198;6.824;2024-01-15T22:56:48;14.90;;;9.57;;
19889;SDS011;10107;51.198;6.824;2024-01-15T23:00:49;16.58;;;9.25;;
19889;SDS011;10107;51.198;6.824;2024-01-15T23:04:51;18.48;;;10.80;;
19889;SDS011;10107;51.198;6.824;2024-01-15T23:08:54;20.55;;;11.35;;
19889;SDS011;10107;51.198;6.824;2024-01-15T23:12:56;18.75;;;10.35;;
19889;SDS011;10107;51.198;6.824;2024-01-15T23:16:58;19.30;;;10.52;;
19889;SDS011;10107;51.198;6.824;2024-01-15T23:20:59;14.82;;;9.73;;
19889;SDS011;10107;51.198;6.824;2024-01-15T23:25:03;14.77;;;9.15;;
19889;SDS011;10107;51.198;6.824;2024-01-15T23:29:05;17.77;;;9.27;;
19889;SDS011;10107;51.198;6.824;2024-01-15T23:33:07;16.67;;;10.10;;
19889;SDS011;10107;51.198;6.824;2024-01-15T23:37:09;16.63;;;9.55;;
19889;SDS011;10107;51.198;6.824;2024-01-15T23:41:18;15.75;;;9.82;;
19889;SDS011;10107;51.198;6.824;2024-01-15T23:45:20;12.75;;;8.30;;
19889;SDS011;10107;51.198;6.824;2024-01-15T23:49:22;14.40;;;9.15;;
19889;SDS011;10107;51.198;6.824;2024-01-15T23:53:23;13.43;;;9.07;;
19889;SDS011;10107;51.198;6.824;2024-01-15T23:57:26;12.82;;;8.30;;
